DAL1874 KSTL-KRDU
Flight info
| Callsign | DAL1874 |
|---|---|
| Flight time | N/A |
| Altitude | 39000 |
| Route | TEDDD5 IIU HYK ZIEBR FRIKY ALDAN4 |
| Aircraft | A20N/M-SDE2E3FGHIRWXY/LB1 |
Departure
| Time | 2026-05-01 15:03 |
|---|---|
| Airport | St. Louis Lambert International Airport (KSTL) |
Arrival
| Time | N/A |
|---|---|
| Airport | Raleigh-Durham International Airport (KRDU) |
| Time | Latitude | Longitude | Altitude | Speed | Heading |
|---|---|---|---|---|---|
| 2026-05-01 14:48 | 38.74159 | -90.36208 | 566 ft | 0 kts | 32° |
| 2026-05-01 14:56 | 38.74140 | -90.36223 | 564 ft | 4 kts | 32° |
| 2026-05-01 14:56 | 38.74122 | -90.36237 | 557 ft | 4 kts | 33° |
| 2026-05-01 14:57 | 38.74108 | -90.36250 | 563 ft | 4 kts | 106° |
| 2026-05-01 14:57 | 38.74122 | -90.36280 | 566 ft | 1 kts | 122° |
| 2026-05-01 14:59 | 38.74121 | -90.36278 | 565 ft | 2 kts | 122° |
| 2026-05-01 14:59 | 38.74112 | -90.36261 | 559 ft | 8 kts | 122° |
| 2026-05-01 14:59 | 38.74100 | -90.36235 | 564 ft | 12 kts | 122° |
| 2026-05-01 15:00 | 38.73964 | -90.35950 | 566 ft | 17 kts | 99° |
| 2026-05-01 15:00 | 38.74041 | -90.35859 | 559 ft | 16 kts | 33° |
| 2026-05-01 15:00 | 38.74105 | -90.35760 | 557 ft | 14 kts | 104° |
| 2026-05-01 15:01 | 38.74046 | -90.35627 | 563 ft | 19 kts | 118° |
| 2026-05-01 15:01 | 38.73975 | -90.35475 | 565 ft | 21 kts | 122° |
| 2026-05-01 15:01 | 38.73896 | -90.35315 | 565 ft | 21 kts | 122° |
| 2026-05-01 15:01 | 38.73820 | -90.35161 | 575 ft | 20 kts | 122° |
| 2026-05-01 15:02 | 38.73746 | -90.35010 | 577 ft | 20 kts | 123° |
| 2026-05-01 15:02 | 38.73698 | -90.34913 | 579 ft | 19 kts | 122° |
| 2026-05-01 15:02 | 38.73703 | -90.34728 | 579 ft | 19 kts | 33° |
| 2026-05-01 15:02 | 38.73809 | -90.34706 | 576 ft | 12 kts | 303° |
| 2026-05-01 15:03 | 38.73921 | -90.34934 | 573 ft | 63 kts | 302° |
| 2026-05-01 15:03 | 38.74276 | -90.35657 | 567 ft | 128 kts | 302° |
| 2026-05-01 15:03 | 38.74801 | -90.36770 | 846 ft | 149 kts | 301° |
| 2026-05-01 15:03 | 38.75383 | -90.37849 | 1525 ft | 151 kts | 314° |
| 2026-05-01 15:04 | 38.76292 | -90.38530 | 2132 ft | 158 kts | 346° |
| 2026-05-01 15:04 | 38.77402 | -90.38978 | 2734 ft | 178 kts | 340° |
| 2026-05-01 15:04 | 38.78605 | -90.39561 | 3412 ft | 189 kts | 340° |
| 2026-05-01 15:04 | 38.79850 | -90.40181 | 4077 ft | 196 kts | 338° |
| 2026-05-01 15:05 | 38.81138 | -90.40883 | 4675 ft | 210 kts | 338° |
| 2026-05-01 15:05 | 38.82592 | -90.41547 | 5099 ft | 235 kts | 351° |
| 2026-05-01 15:05 | 38.84236 | -90.41168 | 5731 ft | 254 kts | 25° |
| 2026-05-01 15:05 | 38.85786 | -90.40129 | 6670 ft | 255 kts | 21° |
| 2026-05-01 15:06 | 38.87367 | -90.39076 | 7623 ft | 260 kts | 29° |
| 2026-05-01 15:06 | 38.88555 | -90.37276 | 8563 ft | 277 kts | 61° |
| 2026-05-01 15:06 | 38.89243 | -90.34896 | 9403 ft | 290 kts | 66° |
| 2026-05-01 15:06 | 38.89831 | -90.32388 | 10294 ft | 300 kts | 73° |
| 2026-05-01 15:07 | 38.89942 | -90.29594 | 10741 ft | 330 kts | 92° |
| 2026-05-01 15:07 | 38.89599 | -90.26594 | 11295 ft | 348 kts | 98° |
| 2026-05-01 15:07 | 38.88982 | -90.23529 | 12050 ft | 361 kts | 109° |
| 2026-05-01 15:07 | 38.87855 | -90.20656 | 12807 ft | 371 kts | 122° |
| 2026-05-01 15:08 | 38.86406 | -90.17880 | 13653 ft | 378 kts | 126° |
| 2026-05-01 15:08 | 38.84885 | -90.15096 | 14437 ft | 384 kts | 126° |
| 2026-05-01 15:08 | 38.83338 | -90.12265 | 15208 ft | 390 kts | 126° |
| 2026-05-01 15:08 | 38.81779 | -90.09395 | 15987 ft | 395 kts | 127° |
| 2026-05-01 15:09 | 38.80203 | -90.06481 | 16768 ft | 400 kts | 127° |
| 2026-05-01 15:09 | 38.78608 | -90.03528 | 17525 ft | 405 kts | 127° |
| 2026-05-01 15:09 | 38.76995 | -90.00538 | 18266 ft | 411 kts | 127° |
| 2026-05-01 15:09 | 38.75360 | -89.97508 | 18889 ft | 417 kts | 127° |
| 2026-05-01 15:10 | 38.73695 | -89.94426 | 19435 ft | 424 kts | 128° |
| 2026-05-01 15:10 | 38.70308 | -89.88160 | 20580 ft | 437 kts | 128° |
| 2026-05-01 15:10 | 38.68563 | -89.84936 | 21159 ft | 444 kts | 129° |
| 2026-05-01 15:11 | 38.66793 | -89.81670 | 21726 ft | 450 kts | 129° |
| 2026-05-01 15:11 | 38.63183 | -89.75015 | 22872 ft | 460 kts | 129° |
| 2026-05-01 15:11 | 38.61343 | -89.71630 | 23391 ft | 466 kts | 130° |
| 2026-05-01 15:12 | 38.59480 | -89.68205 | 23863 ft | 472 kts | 130° |
| 2026-05-01 15:12 | 38.55723 | -89.61307 | 24782 ft | 480 kts | 131° |
| 2026-05-01 15:12 | 38.53936 | -89.57662 | 25222 ft | 490 kts | 123° |
| 2026-05-01 15:13 | 38.50193 | -89.45216 | 26439 ft | 509 kts | 114° |
| 2026-05-01 15:14 | 38.47815 | -89.36633 | 27212 ft | 517 kts | 115° |
| 2026-05-01 15:14 | 38.46621 | -89.32356 | 27582 ft | 521 kts | 115° |
| 2026-05-01 15:14 | 38.44160 | -89.23589 | 28327 ft | 529 kts | 116° |
| 2026-05-01 15:15 | 38.41594 | -89.14694 | 28923 ft | 537 kts | 120° |
| 2026-05-01 15:15 | 38.38598 | -89.05941 | 29639 ft | 542 kts | 122° |
| 2026-05-01 15:16 | 38.35522 | -88.97105 | 30300 ft | 549 kts | 122° |
| 2026-05-01 15:16 | 38.32439 | -88.88228 | 30860 ft | 555 kts | 122° |
| 2026-05-01 15:17 | 38.29289 | -88.79177 | 31306 ft | 564 kts | 122° |
| 2026-05-01 15:18 | 38.24515 | -88.65480 | 32425 ft | 564 kts | 123° |
| 2026-05-01 15:18 | 38.22923 | -88.60930 | 32771 ft | 564 kts | 123° |
| 2026-05-01 15:19 | 38.18151 | -88.47339 | 33822 ft | 564 kts | 124° |
| 2026-05-01 15:19 | 38.14940 | -88.38226 | 34290 ft | 566 kts | 124° |
| 2026-05-01 15:19 | 38.13573 | -88.33484 | 34588 ft | 579 kts | 112° |
| 2026-05-01 15:20 | 38.12856 | -88.23182 | 35260 ft | 589 kts | 92° |
| 2026-05-01 15:20 | 38.12880 | -88.18066 | 35620 ft | 586 kts | 91° |
| 2026-05-01 15:20 | 38.12914 | -88.12900 | 35968 ft | 583 kts | 91° |
| 2026-05-01 15:21 | 38.12938 | -88.07762 | 36283 ft | 581 kts | 91° |
| 2026-05-01 15:21 | 38.12949 | -88.02629 | 36553 ft | 580 kts | 91° |
| 2026-05-01 15:21 | 38.12953 | -87.97511 | 36821 ft | 579 kts | 91° |
| 2026-05-01 15:21 | 38.12951 | -87.92400 | 37112 ft | 578 kts | 91° |
| 2026-05-01 15:22 | 38.12937 | -87.82235 | 37693 ft | 574 kts | 91° |
| 2026-05-01 15:22 | 38.12927 | -87.77242 | 37981 ft | 572 kts | 91° |
| 2026-05-01 15:22 | 38.12913 | -87.72207 | 38253 ft | 570 kts | 91° |
| 2026-05-01 15:23 | 38.12898 | -87.67174 | 38535 ft | 568 kts | 91° |
| 2026-05-01 15:23 | 38.12880 | -87.62167 | 38791 ft | 566 kts | 91° |
| 2026-05-01 15:23 | 38.12861 | -87.57173 | 39002 ft | 565 kts | 91° |
| 2026-05-01 15:23 | 38.12839 | -87.52177 | 39079 ft | 567 kts | 91° |
| 2026-05-01 15:24 | 38.12788 | -87.42110 | 39095 ft | 574 kts | 91° |
| 2026-05-01 15:24 | 38.12728 | -87.31891 | 39077 ft | 582 kts | 91° |
| 2026-05-01 15:25 | 38.12659 | -87.21619 | 39081 ft | 588 kts | 91° |
| 2026-05-01 15:25 | 38.12581 | -87.11240 | 39071 ft | 587 kts | 91° |
| 2026-05-01 15:26 | 38.12493 | -87.00869 | 39070 ft | 587 kts | 91° |
| 2026-05-01 15:26 | 38.12396 | -86.90500 | 39066 ft | 588 kts | 91° |
| 2026-05-01 15:27 | 38.12291 | -86.80184 | 39066 ft | 588 kts | 91° |
| 2026-05-01 15:28 | 38.12114 | -86.64598 | 39062 ft | 589 kts | 91° |
| 2026-05-01 15:28 | 38.11985 | -86.54202 | 39052 ft | 589 kts | 91° |
| 2026-05-01 15:29 | 38.11774 | -86.38598 | 39036 ft | 589 kts | 91° |
| 2026-05-01 15:30 | 38.11462 | -86.17869 | 39044 ft | 589 kts | 91° |
| 2026-05-01 15:31 | 38.10923 | -85.86664 | 39043 ft | 589 kts | 92° |
| 2026-05-01 15:32 | 38.10519 | -85.65933 | 39048 ft | 589 kts | 92° |
| 2026-05-01 15:34 | 38.07696 | -85.35125 | 39027 ft | 587 kts | 102° |